Time;durP1;ratioP1;P1;durP2;ratioP2;P2;SDS_P1;SDS_P2;PMS_P1;PMS_P2;Temp;Humidity;BMP_temperature;BMP_pressure;BME280_temperature;BME280_humidity;BME280_pressure;Samples;Min_cycle;Max_cycle;Signal;HPM_P1;HPM_P2
2022/05/14 00:00:48;;;;;;;3.08;1.42;;;;;;;20.98;37.10;101875.38;5013130;28;20053;-66
2022/05/14 00:03:13;;;;;;;6.38;2.10;;;;;;;20.96;37.71;101874.72;5013336;28;20029;-66
2022/05/14 00:05:39;;;;;;;5.72;1.38;;;;;;;20.95;37.17;101873.00;5016049;28;20108;-66
2022/05/14 00:08:04;;;;;;;5.10;1.55;;;;;;;20.93;37.20;101869.59;5017285;28;20551;-65
2022/05/14 00:10:31;;;;;;;3.13;1.15;;;;;;;20.93;37.96;101869.59;5016793;28;20026;-66
2022/05/14 00:13:06;;;;;;;3.42;1.10;;;;;;;20.95;37.68;101877.59;4999612;28;20022;-65
2022/05/14 00:15:37;;;;;;;8.80;2.33;;;;;;;20.93;37.88;101872.31;5017267;28;20533;-66
2022/05/14 00:18:04;;;;;;;3.08;1.00;;;;;;;20.95;38.04;101866.69;5016916;28;20021;-65
2022/05/14 00:20:31;;;;;;;13.10;2.08;;;;;;;20.95;37.83;101873.00;5016922;28;20032;-65
2022/05/14 00:22:57;;;;;;;4.60;1.02;;;;;;;20.95;37.76;101862.09;5017072;28;20071;-66
2022/05/14 00:25:23;;;;;;;3.53;1.20;;;;;;;20.95;37.53;101862.09;5016761;28;20429;-66
2022/05/14 00:27:49;;;;;;;2.08;1.00;;;;;;;20.93;37.32;101858.69;5016827;28;20030;-65
2022/05/14 00:30:15;;;;;;;7.68;1.30;;;;;;;20.94;37.53;101862.28;5016967;28;20029;-66
2022/05/14 00:32:40;;;;;;;2.78;1.15;;;;;;;20.92;37.63;101851.53;4999080;28;20030;-66
2022/05/14 00:35:08;;;;;;;5.32;1.70;;;;;;;20.89;37.26;101846.44;5016891;28;20026;-66
2022/05/14 00:37:34;;;;;;;0.88;0.60;;;;;;;20.86;37.45;101842.19;5016526;28;20021;-65
2022/05/14 00:40:00;;;;;;;5.90;1.17;;;;;;;20.83;37.51;101856.13;5016414;28;20022;-66
2022/05/14 00:42:26;;;;;;;3.17;2.25;;;;;;;20.82;37.85;101850.88;5016345;28;20048;-66
2022/05/14 00:44:52;;;;;;;2.47;1.20;;;;;;;20.78;37.33;101844.91;5016345;28;20383;-66
2022/05/14 00:47:18;;;;;;;4.30;1.02;;;;;;;20.76;37.84;101851.56;5016251;28;20037;-66
2022/05/14 00:49:45;;;;;;;4.07;1.40;;;;;;;20.74;37.65;101850.88;5031799;28;20090;-66
2022/05/14 00:52:14;;;;;;;3.92;1.30;;;;;;;20.71;37.56;101849.34;5028414;28;20029;-66
2022/05/14 00:54:50;;;;;;;1.75;1.05;;;;;;;20.69;37.73;101853.22;5036151;28;20457;-66
2022/05/14 00:57:19;;;;;;;6.60;1.65;;;;;;;20.67;37.73;101853.41;5002026;28;20025;-66
2022/05/14 00:59:45;;;;;;;5.80;1.70;;;;;;;20.65;37.89;101849.16;5040073;28;20044;-66
2022/05/14 01:02:10;;;;;;;6.18;1.40;;;;;;;20.64;37.38;101852.91;5031328;28;20378;-66
2022/05/14 01:04:41;;;;;;;4.63;0.85;;;;;;;20.62;37.85;101854.94;5055801;28;20025;-66
2022/05/14 01:07:11;;;;;;;5.43;1.55;;;;;;;20.60;37.49;101849.66;5055914;28;20105;-65
2022/05/14 01:09:37;;;;;;;7.25;1.20;;;;;;;20.60;37.47;101851.56;5055955;28;20471;-65
2022/05/14 01:12:03;;;;;;;5.65;0.93;;;;;;;20.60;37.34;101852.38;5037830;28;20051;-66
2022/05/14 01:14:29;;;;;;;9.43;1.00;;;;;;;20.62;37.31;101849.50;5037796;28;20033;-65
2022/05/14 01:16:54;;;;;;;1.45;0.80;;;;;;;20.61;37.48;101858.69;5054339;28;20035;-66
2022/05/14 01:19:20;;;;;;;2.90;0.88;;;;;;;20.59;37.54;101845.25;5055804;28;20104;-66
2022/05/14 01:22:08;;;;;;;4.38;1.13;;;;;;;20.61;37.90;101850.50;5055493;28;20054;-66
2022/05/14 01:27:56;;;;;;;2.95;1.95;;;;;;;20.58;37.51;101853.56;5051330;28;20513;-65
2022/05/14 01:30:21;;;;;;;4.03;0.85;;;;;;;20.56;37.14;101851.03;5055372;28;20104;-66
2022/05/14 01:33:04;;;;;;;3.25;0.90;;;;;;;20.58;37.35;101853.56;5055302;28;20052;-66
2022/05/14 01:35:31;;;;;;;7.22;1.25;;;;;;;20.55;37.08;101859.34;5055282;28;20017;-65
2022/05/14 01:37:56;;;;;;;7.20;1.30;;;;;;;20.53;37.16;101858.69;5037448;28;20057;-66
2022/05/14 01:40:21;;;;;;;2.83;0.95;;;;;;;20.52;37.37;101865.16;5055122;28;20052;-65
2022/05/14 01:42:47;;;;;;;3.78;1.60;;;;;;;20.51;37.67;101858.00;5055063;28;20021;-66
2022/05/14 01:45:12;;;;;;;2.35;0.90;;;;;;;20.49;37.40;101866.31;5054793;28;20025;-66
2022/05/14 01:47:37;;;;;;;3.00;0.90;;;;;;;20.46;37.60;101860.38;5044707;28;20417;-66
2022/05/14 01:50:03;;;;;;;1.90;1.05;;;;;;;20.42;37.52;101867.16;5035405;28;20029;-65
2022/05/14 01:52:28;;;;;;;0.90;0.73;;;;;;;20.39;37.28;101862.06;5035198;28;20033;-66
2022/05/14 01:54:53;;;;;;;4.05;0.90;;;;;;;20.37;37.51;101858.66;5034911;28;20056;-66
2022/05/14 01:57:19;;;;;;;3.28;1.00;;;;;;;20.32;37.25;101862.72;5034790;28;20459;-66
2022/05/14 01:59:44;;;;;;;5.45;0.90;;;;;;;20.28;37.18;101853.22;5015192;28;20062;-66
2022/05/14 02:02:10;;;;;;;3.28;0.95;;;;;;;20.25;37.04;101864.44;5015186;28;20087;-66
2022/05/14 02:04:35;;;;;;;4.22;1.35;;;;;;;20.21;37.56;101857.56;5015049;28;20434;-65
2022/05/14 02:07:01;;;;;;;2.15;0.75;;;;;;;20.19;37.65;101859.59;5014860;28;20034;-65
2022/05/14 02:09:26;;;;;;;4.50;1.02;;;;;;;20.17;37.44;101853.50;5015079;28;20039;-66
2022/05/14 02:11:51;;;;;;;2.15;0.75;;;;;;;20.14;37.74;101853.81;5014724;28;20022;-66
2022/05/14 02:14:17;;;;;;;7.18;0.73;;;;;;;20.11;37.53;101856.88;5014704;28;20391;-66
2022/05/14 02:16:42;;;;;;;1.55;0.65;;;;;;;20.08;37.62;101851.75;5014771;28;20049;-66
2022/05/14 02:19:07;;;;;;;4.38;1.30;;;;;;;20.07;37.61;101855.47;5014616;28;20036;-66
2022/05/14 02:21:34;;;;;;;6.53;0.90;;;;;;;20.07;37.67;101849.22;5014628;28;20490;-64
2022/05/14 02:24:00;;;;;;;7.55;1.35;;;;;;;20.06;37.32;101852.94;5013994;28;20050;-65
2022/05/14 02:26:25;;;;;;;3.13;0.88;;;;;;;20.05;37.65;101860.25;5015088;28;20123;-66
2022/05/14 02:28:51;;;;;;;8.32;1.38;;;;;;;20.03;37.64;101854.13;5014512;28;20026;-65
2022/05/14 02:31:16;;;;;;;0.85;0.70;;;;;;;20.02;37.46;101859.72;5014374;28;20456;-65
2022/05/14 02:33:42;;;;;;;1.08;0.68;;;;;;;20.00;37.31;101859.91;5014205;28;20032;-66
2022/05/14 02:36:07;;;;;;;5.05;1.13;;;;;;;19.99;37.43;101860.06;5014418;28;20104;-65
2022/05/14 02:38:35;;;;;;;7.57;1.30;;;;;;;19.97;37.56;101871.09;5014392;28;20080;-65
2022/05/14 02:41:01;;;;;;;4.07;0.80;;;;;;;19.93;37.47;101868.91;5014207;28;20100;-66
2022/05/14 02:43:26;;;;;;;5.35;0.90;;;;;;;19.90;37.66;101861.06;5014425;28;20080;-66
2022/05/14 02:45:52;;;;;;;2.83;0.70;;;;;;;19.86;37.85;101867.81;5014002;28;20468;-66
2022/05/14 02:48:17;;;;;;;2.40;0.85;;;;;;;19.81;37.63;101865.59;5012888;28;20030;-65
2022/05/14 02:50:43;;;;;;;1.85;1.23;;;;;;;19.76;37.85;101863.38;5014216;28;20033;-66
2022/05/14 02:53:08;;;;;;;1.90;1.20;;;;;;;19.75;38.06;101867.13;5014136;28;20438;-66
2022/05/14 02:55:34;;;;;;;2.55;0.80;;;;;;;19.71;37.61;101864.88;5012695;28;20356;-65
2022/05/14 02:58:00;;;;;;;4.70;0.90;;;;;;;19.69;37.56;101861.47;5019362;28;20091;-65
2022/05/14 03:00:26;;;;;;;5.30;0.88;;;;;;;19.66;37.92;101861.78;5033658;28;20083;-66
2022/05/14 03:02:51;;;;;;;1.58;0.88;;;;;;;19.65;37.47;101870.97;5033671;28;20017;-65
2022/05/14 03:05:19;;;;;;;4.30;1.75;;;;;;;19.61;38.83;101864.16;5033489;28;20040;-66
2022/05/14 03:07:44;;;;;;;6.75;1.08;;;;;;;19.58;37.81;101869.91;5033900;28;20025;-66
2022/05/14 03:10:10;;;;;;;5.57;0.93;;;;;;;19.59;38.08;101868.91;5033681;28;20502;-66
2022/05/14 03:12:36;;;;;;;3.75;0.80;;;;;;;19.55;37.32;101859.38;5033634;28;20433;-65
2022/05/14 03:15:01;;;;;;;4.80;1.30;;;;;;;19.54;38.02;101868.56;5033456;28;20026;-65
2022/05/14 03:17:27;;;;;;;6.65;1.15;;;;;;;19.53;38.32;101861.41;5033409;28;20036;-65
2022/05/14 03:19:52;;;;;;;6.47;1.27;;;;;;;19.52;37.84;101860.53;5033612;28;20056;-66
2022/05/14 03:22:18;;;;;;;5.07;0.90;;;;;;;19.50;37.78;101859.84;5033380;28;20099;-66
2022/05/14 03:24:43;;;;;;;4.05;1.02;;;;;;;19.48;37.47;101858.31;5033254;28;20065;-66
2022/05/14 03:27:10;;;;;;;2.90;0.65;;;;;;;19.46;37.64;101865.75;5033960;28;20041;-66
2022/05/14 03:29:36;;;;;;;2.83;0.75;;;;;;;19.43;37.77;101855.25;5033346;28;20026;-66
2022/05/14 03:32:02;;;;;;;3.08;0.90;;;;;;;19.42;37.51;101853.53;5015532;28;20067;-65
2022/05/14 03:34:27;;;;;;;2.47;0.90;;;;;;;19.38;37.66;101862.97;5033768;28;20025;-65
2022/05/14 03:36:53;;;;;;;4.18;0.98;;;;;;;19.38;37.89;101868.41;5015650;28;20013;-65
2022/05/14 03:39:18;;;;;;;5.22;1.10;;;;;;;19.36;38.15;101863.16;5049988;28;20060;-65
2022/05/14 03:41:44;;;;;;;1.38;0.82;;;;;;;19.35;37.83;101857.84;5057363;28;20025;-66
2022/05/14 03:44:10;;;;;;;3.33;1.20;;;;;;;19.33;38.47;101860.75;5057303;28;20479;-66
2022/05/14 03:46:36;;;;;;;3.25;0.90;;;;;;;19.31;38.65;101860.06;5057403;28;20032;-65
2022/05/14 03:49:02;;;;;;;6.85;1.40;;;;;;;19.32;38.49;101860.91;5057192;28;20425;-65
2022/05/14 03:51:28;;;;;;;4.50;0.93;;;;;;;19.32;38.34;101860.91;5057297;28;20039;-65
2022/05/14 03:53:54;;;;;;;4.43;1.23;;;;;;;19.31;38.54;101856.47;5039471;28;20382;-66
2022/05/14 03:56:19;;;;;;;2.92;0.80;;;;;;;19.31;37.73;101864.63;5039308;28;20029;-66
2022/05/14 03:58:44;;;;;;;5.40;1.27;;;;;;;19.32;38.19;101861.75;5056629;28;20045;-66
2022/05/14 04:01:10;;;;;;;2.67;1.08;;;;;;;19.32;37.91;101860.91;5056851;28;20052;-65
2022/05/14 04:03:36;;;;;;;4.20;1.20;;;;;;;19.30;37.90;101871.06;5039065;28;20032;-65
2022/05/14 04:06:03;;;;;;;4.93;1.30;;;;;;;19.28;37.84;101863.09;5056618;28;20025;-65
2022/05/14 04:08:28;;;;;;;1.25;1.08;;;;;;;19.29;38.13;101864.78;5056821;28;20024;-66
2022/05/14 04:10:54;;;;;;;4.50;1.40;;;;;;;19.27;37.90;101863.25;5056834;28;20360;-66
2022/05/14 04:13:19;;;;;;;2.45;0.90;;;;;;;19.28;38.32;101868.53;5056704;28;20021;-65
2022/05/14 04:15:45;;;;;;;3.05;1.25;;;;;;;19.27;38.03;101866.81;5056809;28;20020;-66
2022/05/14 04:18:10;;;;;;;5.22;1.15;;;;;;;19.27;37.93;101866.81;5056722;28;20452;-66
2022/05/14 04:20:36;;;;;;;2.88;2.60;;;;;;;19.28;38.46;101867.66;5056613;28;20032;-66
2022/05/14 04:23:02;;;;;;;7.25;1.15;;;;;;;19.29;38.48;101866.66;5056547;28;20067;-66
2022/05/14 04:25:28;;;;;;;3.83;1.05;;;;;;;19.29;38.21;101875.66;5056309;28;20029;-66
2022/05/14 04:27:53;;;;;;;8.93;1.50;;;;;;;19.28;38.27;101863.09;5056592;28;20421;-66
2022/05/14 04:30:19;;;;;;;3.60;1.02;;;;;;;19.29;37.87;101869.38;5056757;28;20056;-66
2022/05/14 04:32:45;;;;;;;4.38;1.13;;;;;;;19.32;38.67;101864.47;5056264;28;20041;-66
2022/05/14 04:35:11;;;;;;;6.40;1.20;;;;;;;19.34;38.68;101861.59;5056391;28;20104;-66
2022/05/14 04:37:37;;;;;;;3.15;1.17;;;;;;;19.38;38.19;101876.56;5056445;28;20057;-65
2022/05/14 04:40:06;;;;;;;5.28;1.00;;;;;;;19.41;38.34;101876.25;5056081;28;20059;-67
2022/05/14 04:42:32;;;;;;;6.80;1.42;;;;;;;19.44;38.57;101873.22;5056121;28;20025;-66
2022/05/14 04:44:57;;;;;;;3.42;1.40;;;;;;;19.50;38.74;101867.16;5056107;28;20398;-65
2022/05/14 04:47:23;;;;;;;3.08;1.48;;;;;;;19.57;37.56;101865.50;5056275;28;20028;-66
2022/05/14 04:49:49;;;;;;;4.30;1.17;;;;;;;19.63;38.27;101870.28;5055986;28;20107;-65
2022/05/14 04:52:15;;;;;;;5.22;1.20;;;;;;;19.72;38.33;101882.91;5055830;28;20068;-66
2022/05/14 04:54:40;;;;;;;9.48;1.70;;;;;;;19.80;38.44;101880.22;5055933;28;20060;-66
2022/05/14 04:57:06;;;;;;;19.63;2.45;;;;;;;19.89;38.38;101881.97;5056071;28;20021;-66
2022/05/14 04:59:32;;;;;;;3.65;1.48;;;;;;;19.98;38.05;101877.41;5037788;28;20049;-65
2022/05/14 05:04:51;;;;;;;3.03;1.42;;;;;;;20.16;38.07;101887.16;5032297;28;20029;-66
2022/05/14 05:07:16;;;;;;;1.70;1.17;;;;;;;20.28;37.70;101885.00;5056009;28;20033;-65
2022/05/14 05:09:41;;;;;;;2.70;1.23;;;;;;;20.38;38.09;101890.31;5055908;28;20377;-66
2022/05/14 05:12:07;;;;;;;9.77;1.60;;;;;;;20.48;38.00;101893.72;5055676;28;20517;-65
2022/05/14 05:14:33;;;;;;;9.02;1.83;;;;;;;20.60;37.56;101895.13;5055830;28;20021;-65
2022/05/14 05:16:58;;;;;;;8.90;2.05;;;;;;;20.72;38.09;101899.19;5055509;28;20028;-65
2022/05/14 05:19:24;;;;;;;9.50;2.65;;;;;;;20.81;37.50;101900.91;5055654;28;20067;-65
2022/05/14 05:21:49;;;;;;;6.05;1.83;;;;;;;20.92;37.87;101906.88;5055489;28;20032;-66
2022/05/14 05:24:15;;;;;;;8.68;1.83;;;;;;;21.06;37.53;101902.63;5055333;28;20406;-65
2022/05/14 05:26:41;;;;;;;4.93;1.67;;;;;;;21.17;37.03;101906.88;5055721;28;20112;-65
2022/05/14 05:29:06;;;;;;;8.10;2.08;;;;;;;21.28;37.55;101910.13;5055407;28;20029;-66
2022/05/14 05:31:33;;;;;;;5.93;1.70;;;;;;;21.40;37.11;101916.06;5055240;28;20021;-66
2022/05/14 05:33:59;;;;;;;9.57;2.30;;;;;;;21.51;37.53;101906.66;5055132;28;20155;-65
2022/05/14 05:36:25;;;;;;;10.40;2.25;;;;;;;21.63;37.13;101913.47;5055113;28;20021;-66
2022/05/14 05:38:51;;;;;;;4.78;1.30;;;;;;;21.76;37.10;101911.03;5055082;28;20021;-66
2022/05/14 05:41:18;;;;;;;6.05;1.80;;;;;;;21.90;36.76;101919.38;5055168;28;20031;-66
2022/05/14 05:43:44;;;;;;;3.65;1.38;;;;;;;22.04;36.63;101915.06;5055451;28;20530;-65
2022/05/14 05:46:11;;;;;;;4.90;1.73;;;;;;;22.15;36.67;101909.19;5054128;28;20060;-66
2022/05/14 05:48:51;;;;;;;4.07;1.67;;;;;;;22.33;36.85;101912.53;5036756;28;20025;-66
2022/05/14 05:51:17;;;;;;;10.38;2.50;;;;;;;22.50;36.96;101911.38;5017435;28;20029;-66
2022/05/14 05:59:10;;;;;;;5.15;1.58;;;;;;;22.97;36.21;101899.47;5022699;28;20061;-66
2022/05/14 06:01:35;;;;;;;8.40;1.88;;;;;;;23.11;35.81;101910.44;5039066;28;20029;-65
2022/05/14 06:04:01;;;;;;;7.13;1.40;;;;;;;23.27;36.08;101914.91;5021666;28;20029;-65
2022/05/14 06:06:26;;;;;;;3.33;1.80;;;;;;;23.41;36.19;101908.66;5006505;28;20025;-65
2022/05/14 06:08:53;;;;;;;6.30;1.83;;;;;;;23.54;35.42;101906.09;5022938;28;20030;-65
2022/05/14 06:11:18;;;;;;;7.75;1.65;;;;;;;23.66;35.69;101910.09;5023405;28;20017;-65
2022/05/14 06:13:44;;;;;;;8.45;2.10;;;;;;;23.76;35.61;101907.91;5024267;28;20044;-65
2022/05/14 06:16:10;;;;;;;6.53;2.15;;;;;;;23.89;35.38;101914.59;5022249;28;20029;-65
2022/05/14 06:18:37;;;;;;;6.47;2.30;;;;;;;24.01;34.81;101913.09;5023639;28;20025;-65
2022/05/14 06:21:03;;;;;;;4.70;1.60;;;;;;;24.09;35.65;101918.47;5024144;28;20052;-65
2022/05/14 06:23:29;;;;;;;9.18;2.42;;;;;;;24.18;35.60;101920.06;5039887;28;20075;-65
2022/05/14 06:25:54;;;;;;;4.80;1.60;;;;;;;24.28;35.15;101918.75;5025704;28;20510;-66
2022/05/14 06:28:19;;;;;;;7.63;2.55;;;;;;;24.38;35.13;101915.69;5033813;28;20561;-65
2022/05/14 06:30:45;;;;;;;3.35;1.42;;;;;;;24.53;34.73;101918.41;5026896;28;20091;-65
2022/05/14 06:33:11;;;;;;;5.55;1.48;;;;;;;24.66;34.30;101919.38;5024985;28;20037;-65
2022/05/14 06:35:37;;;;;;;14.70;1.70;;;;;;;24.80;34.12;101926.72;5049393;28;20067;-65
2022/05/14 06:38:03;;;;;;;10.93;2.40;;;;;;;24.97;34.27;101921.84;5034098;28;20021;-65
2022/05/14 06:40:28;;;;;;;3.92;1.80;;;;;;;25.11;34.20;101922.81;5034223;28;20029;-64
2022/05/14 06:42:54;;;;;;;7.63;1.90;;;;;;;25.24;33.90;101921.00;5033889;28;20033;-65
2022/05/14 06:45:19;;;;;;;7.38;2.15;;;;;;;25.39;33.93;101927.28;5034042;28;20033;-66
2022/05/14 06:47:45;;;;;;;10.35;3.15;;;;;;;25.55;33.71;101931.63;5016351;28;20029;-65
2022/05/14 06:50:10;;;;;;;7.10;2.22;;;;;;;25.65;33.90;101923.91;5033915;28;20431;-65
2022/05/14 06:52:36;;;;;;;9.60;2.38;;;;;;;25.78;33.86;101921.22;5033665;28;20087;-65
2022/05/14 06:55:02;;;;;;;7.22;1.77;;;;;;;25.89;33.48;101922.56;5033646;28;20045;-65
2022/05/14 06:57:29;;;;;;;7.70;2.03;;;;;;;26.03;33.56;101927.06;5033880;28;20463;-66
2022/05/14 06:59:55;;;;;;;11.38;2.53;;;;;;;26.16;33.48;101929.91;5033818;28;20434;-65
2022/05/14 07:02:20;;;;;;;5.63;3.33;;;;;;;26.27;33.25;101928.50;5033595;28;20049;-65
2022/05/14 07:07:30;;;;;;;6.88;1.90;;;;;;;26.46;32.92;101938.72;5018709;28;20517;-65
2022/05/14 07:09:55;;;;;;;6.88;2.22;;;;;;;26.58;32.80;101928.78;5033734;28;20025;-65
2022/05/14 07:12:21;;;;;;;6.20;2.22;;;;;;;26.69;33.00;101919.94;5033472;28;20043;-66
2022/05/14 07:14:46;;;;;;;6.63;2.88;;;;;;;26.83;32.98;101921.69;5032419;28;20030;-66
2022/05/14 07:17:12;;;;;;;9.50;2.50;;;;;;;26.96;33.07;101931.88;5033543;28;20063;-65
2022/05/14 07:19:37;;;;;;;8.88;2.15;;;;;;;27.10;32.25;101928.94;5033398;28;20025;-66
2022/05/14 07:22:03;;;;;;;7.70;2.20;;;;;;;27.29;32.62;101926.38;5033277;28;20071;-65
2022/05/14 07:24:29;;;;;;;6.20;2.63;;;;;;;27.49;32.11;101916.22;5033189;28;20029;-66
2022/05/14 07:26:57;;;;;;;10.20;2.13;;;;;;;27.67;31.81;101906.25;5033544;28;20389;-65
2022/05/14 07:29:24;;;;;;;11.20;2.60;;;;;;;27.88;32.48;101910.66;5033326;28;20022;-65
2022/05/14 07:31:50;;;;;;;14.20;2.80;;;;;;;28.06;31.50;101923.75;5033244;28;20525;-65
2022/05/14 07:34:16;;;;;;;9.77;2.63;;;;;;;28.18;31.34;101917.34;5033430;28;20018;-65
2022/05/14 07:36:52;;;;;;;5.40;1.88;;;;;;;28.33;31.74;101918.97;5033262;28;20026;-65
2022/05/14 07:39:19;;;;;;;10.13;3.70;;;;;;;28.51;32.08;101921.84;5033457;28;20041;-65
2022/05/14 07:41:48;;;;;;;7.55;2.75;;;;;;;28.68;31.85;101923.03;5033427;28;20471;-66
2022/05/14 07:44:14;;;;;;;8.48;2.28;;;;;;;28.84;31.00;101923.38;5033736;28;20025;-65
2022/05/14 07:46:39;;;;;;;8.27;2.60;;;;;;;29.03;31.07;101932.59;5015736;28;20042;-66
2022/05/14 07:49:08;;;;;;;5.80;2.28;;;;;;;29.20;30.48;101928.19;5033399;28;20024;-65
2022/05/14 07:51:34;;;;;;;8.57;2.78;;;;;;;29.36;31.27;101933.19;5033302;28;20030;-65
2022/05/14 07:53:59;;;;;;;7.60;2.25;;;;;;;29.44;31.28;101930.13;5033314;28;20113;-65
2022/05/14 07:56:25;;;;;;;7.10;2.25;;;;;;;29.57;30.42;101925.53;5033329;28;20542;-64
2022/05/14 07:58:50;;;;;;;13.07;2.70;;;;;;;29.73;30.58;101923.03;5033028;28;20127;-65
2022/05/14 08:01:16;;;;;;;7.05;2.72;;;;;;;29.84;30.79;101925.09;5032874;28;20021;-65
2022/05/14 08:03:41;;;;;;;16.33;3.10;;;;;;;29.94;30.85;101930.06;5033420;28;20108;-65
2022/05/14 08:06:09;;;;;;;9.60;2.55;;;;;;;30.09;30.25;101921.41;5032755;28;20076;-65
2022/05/14 08:08:36;;;;;;;11.90;3.28;;;;;;;30.23;30.44;101934.84;5032911;28;20034;-66
2022/05/14 08:11:02;;;;;;;11.27;3.50;;;;;;;30.37;29.77;101930.84;5015112;28;20033;-65
2022/05/14 08:13:27;;;;;;;12.00;2.83;;;;;;;30.50;29.84;101919.59;5032840;28;20036;-66
2022/05/14 08:15:54;;;;;;;11.10;2.90;;;;;;;30.65;29.94;101921.09;5032850;28;20017;-66
2022/05/14 08:18:19;;;;;;;11.75;3.05;;;;;;;30.77;29.60;101919.19;5032719;28;20033;-66
2022/05/14 08:20:46;;;;;;;15.75;3.50;;;;;;;30.89;29.63;101918.16;5048318;28;20075;-65
2022/05/14 08:25:58;;;;;;;10.45;2.58;;;;;;;31.23;29.16;101919.34;5047422;28;20087;-65
2022/05/14 08:28:23;;;;;;;8.43;2.92;;;;;;;31.40;28.83;101917.56;5036339;28;20117;-65
2022/05/14 08:30:49;;;;;;;8.27;2.60;;;;;;;31.52;28.73;101915.66;5018619;28;20135;-65
2022/05/14 08:33:14;;;;;;;11.00;2.80;;;;;;;31.57;28.96;101921.34;5051694;28;20104;-64
2022/05/14 08:35:40;;;;;;;6.18;2.50;;;;;;;31.70;28.78;101923.84;5036291;28;20025;-66
2022/05/14 08:38:06;;;;;;;9.85;2.15;;;;;;;31.84;28.68;101920.81;5036136;28;20026;-65
2022/05/14 08:40:42;;;;;;;8.77;3.17;;;;;;;31.97;28.60;101915.00;5036220;28;20368;-66
2022/05/14 08:43:27;;;;;;;11.20;2.95;;;;;;;32.08;28.26;101915.00;5036093;28;20075;-65
2022/05/14 08:45:53;;;;;;;9.02;2.88;;;;;;;32.17;28.31;101919.09;5035859;28;20026;-65
2022/05/14 08:48:27;;;;;;;10.80;3.67;;;;;;;32.28;28.05;101914.59;5035995;28;20112;-66
2022/05/14 08:51:14;;;;;;;9.30;3.08;;;;;;;32.42;27.89;101918.75;5036016;28;20021;-65
2022/05/14 08:53:41;;;;;;;11.05;3.50;;;;;;;32.55;27.72;101912.13;5036002;28;20079;-66
2022/05/14 08:56:16;;;;;;;8.13;3.17;;;;;;;32.67;27.89;101916.50;5035827;28;20056;-66
2022/05/14 08:59:07;;;;;;;11.38;3.05;;;;;;;32.77;27.42;101921.41;5018471;28;20049;-66
2022/05/14 09:01:38;;;;;;;12.02;3.00;;;;;;;32.79;27.79;101917.31;5051151;28;20049;-66
2022/05/14 09:04:05;;;;;;;12.07;3.15;;;;;;;32.91;27.39;101916.38;5035682;28;20036;-66
2022/05/14 09:06:31;;;;;;;9.55;3.30;;;;;;;33.04;27.50;101916.06;5035550;28;20164;-66
2022/05/14 09:08:56;;;;;;;9.27;3.03;;;;;;;33.19;28.05;101913.59;5035573;28;20108;-66
2022/05/14 09:11:23;;;;;;;8.40;3.03;;;;;;;33.29;26.74;101917.34;5035503;28;20037;-65
2022/05/14 09:13:53;;;;;;;10.93;3.20;;;;;;;33.36;26.65;101917.19;5035692;28;20025;-67
2022/05/14 09:16:26;;;;;;;7.82;3.50;;;;;;;33.40;27.04;101915.56;5017790;28;20072;-67
2022/05/14 09:18:53;;;;;;;9.98;2.47;;;;;;;33.46;27.06;101911.78;5035415;28;20048;-66
2022/05/14 09:21:28;;;;;;;15.07;3.05;;;;;;;33.52;26.44;101908.00;5050668;28;20083;-66
2022/05/14 09:24:16;;;;;;;11.68;2.58;;;;;;;33.63;27.30;101909.84;5035432;28;20030;-66
2022/05/14 09:26:42;;;;;;;7.85;3.15;;;;;;;33.72;26.23;101907.47;5017845;28;20509;-66
2022/05/14 09:29:25;;;;;;;6.82;2.50;;;;;;;33.79;26.92;101908.97;5035524;28;20029;-66
2022/05/14 09:32:06;;;;;;;9.23;3.20;;;;;;;33.88;26.38;101910.22;5049578;28;20074;-67
2022/05/14 09:34:34;;;;;;;7.72;2.13;;;;;;;34.01;26.72;101905.34;5035599;28;20076;-66
2022/05/14 09:37:16;;;;;;;15.75;3.17;;;;;;;34.19;26.79;101897.56;5034138;28;20544;-67
2022/05/14 09:39:41;;;;;;;6.30;2.45;;;;;;;34.28;26.67;101893.25;5035146;28;20100;-65
2022/05/14 09:42:23;;;;;;;14.60;3.10;;;;;;;34.35;26.33;101902.22;5035131;28;20083;-66
2022/05/14 09:44:50;;;;;;;9.93;2.60;;;;;;;34.33;25.97;101903.56;5035118;28;20022;-65
2022/05/14 09:47:25;;;;;;;7.75;2.67;;;;;;;34.36;26.19;101901.13;5035067;28;20167;-66
2022/05/14 09:49:59;;;;;;;12.70;2.92;;;;;;;34.50;25.67;101905.19;5017421;28;20100;-67
2022/05/14 09:52:30;;;;;;;9.82;2.90;;;;;;;34.80;26.29;101899.09;5017153;28;20021;-66
2022/05/14 09:54:56;;;;;;;14.02;3.35;;;;;;;35.21;25.24;101893.88;5017185;28;20017;-66
2022/05/14 09:57:40;;;;;;;9.60;5.88;;;;;;;35.63;25.64;101891.97;5016989;28;20021;-66
2022/05/14 10:00:14;;;;;;;10.77;5.65;;;;;;;36.28;25.04;101893.44;5017058;28;20036;-66
2022/05/14 10:03:07;;;;;;;10.07;2.50;;;;;;;37.12;24.28;101900.31;5034864;28;20036;-66
2022/05/14 10:06:02;;;;;;;6.82;2.40;;;;;;;38.51;23.16;101890.13;5034616;28;20125;-65
2022/05/14 10:09:08;;;;;;;9.40;2.75;;;;;;;38.92;22.21;101887.91;5034556;28;20084;-65
2022/05/14 10:11:37;;;;;;;8.65;2.78;;;;;;;38.36;22.86;101888.25;4994792;28;20045;-65
2022/05/14 10:14:27;;;;;;;12.07;3.38;;;;;;;38.02;23.36;101901.31;5034636;28;20025;-65
2022/05/14 10:17:13;;;;;;;9.15;2.70;;;;;;;37.76;23.39;101899.69;5034354;28;20052;-64
2022/05/14 10:19:38;;;;;;;11.50;2.67;;;;;;;37.62;23.69;101888.25;5034261;28;20112;-66
2022/05/14 10:22:16;;;;;;;11.02;2.75;;;;;;;37.58;23.95;101897.50;5034400;28;20136;-66
2022/05/14 10:27:49;;;;;;;5.25;2.35;;;;;;;37.77;23.65;101884.56;5046915;28;20087;-66
2022/05/14 10:30:22;;;;;;;6.93;2.67;;;;;;;37.91;22.91;101877.28;5034123;28;20030;-66
2022/05/14 10:32:57;;;;;;;8.68;3.17;;;;;;;38.07;23.46;101884.47;5033924;28;20052;-64
2022/05/14 10:35:25;;;;;;;9.82;2.90;;;;;;;38.22;23.08;101881.59;5049479;28;20021;-67
2022/05/14 10:38:02;;;;;;;7.28;3.45;;;;;;;38.39;23.17;101893.28;5049472;28;20021;-66
2022/05/14 10:40:38;;;;;;;11.23;3.08;;;;;;;38.58;22.16;101878.63;5016312;28;20053;-66
2022/05/14 10:43:07;;;;;;;9.25;2.83;;;;;;;38.69;22.22;101875.47;5016341;28;20043;-66
2022/05/14 10:45:44;;;;;;;10.95;3.22;;;;;;;38.77;22.95;101871.22;5033976;28;20021;-66
2022/05/14 10:48:39;;;;;;;7.85;2.53;;;;;;;38.89;22.78;101874.50;5033694;28;20068;-66
2022/05/14 10:51:09;;;;;;;10.40;2.95;;;;;;;38.90;23.02;101862.97;5028138;28;20087;-65
2022/05/14 10:53:39;;;;;;;12.77;2.50;;;;;;;39.00;22.87;101876.88;5049143;28;20029;-66
2022/05/14 10:56:14;;;;;;;6.47;2.97;;;;;;;39.12;22.52;101867.25;5016331;28;20471;-66
2022/05/14 10:58:56;;;;;;;7.57;2.35;;;;;;;39.00;22.31;101870.47;5015933;28;20129;-65
2022/05/14 11:01:36;;;;;;;8.02;2.80;;;;;;;39.15;22.00;101867.50;5033639;28;20440;-65
2022/05/14 11:04:25;;;;;;;9.60;2.50;;;;;;;39.01;22.45;101869.31;5033900;28;20040;-65
2022/05/14 11:07:34;;;;;;;7.38;2.35;;;;;;;39.31;21.66;101866.25;5007044;28;20425;-66
2022/05/14 11:10:20;;;;;;;13.88;2.58;;;;;;;38.42;22.92;101870.31;5018132;28;20065;-65
2022/05/14 11:12:47;;;;;;;12.93;2.97;;;;;;;38.13;22.39;101872.13;5033469;28;20029;-66
2022/05/14 11:15:26;;;;;;;8.40;2.38;;;;;;;38.43;22.56;101866.38;5048781;28;20026;-66
2022/05/14 11:18:04;;;;;;;6.93;2.17;;;;;;;38.89;22.32;101863.28;5033417;28;20029;-67
2022/05/14 11:20:29;;;;;;;7.07;1.88;;;;;;;39.10;21.98;101875.13;5049030;28;20378;-66
2022/05/14 11:23:08;;;;;;;9.88;2.15;;;;;;;39.26;22.41;101860.69;5033357;28;20025;-66
2022/05/14 11:25:33;;;;;;;13.35;2.38;;;;;;;39.60;21.82;101857.81;5015675;28;20033;-66
2022/05/14 11:28:04;;;;;;;9.63;2.22;;;;;;;39.57;22.64;101870.47;5033828;28;20029;-66
2022/05/14 11:30:46;;;;;;;7.18;1.83;;;;;;;39.34;21.50;101860.06;5033349;28;20494;-67
2022/05/14 11:33:26;;;;;;;6.35;2.33;;;;;;;39.88;22.30;101858.91;5048859;28;20030;-67
2022/05/14 11:36:05;;;;;;;7.88;1.92;;;;;;;40.09;21.43;101860.34;5033621;28;20087;-66
2022/05/14 11:38:36;;;;;;;5.85;2.05;;;;;;;40.40;21.04;101861.56;5015378;28;20029;-66
2022/05/14 11:41:13;;;;;;;8.85;2.58;;;;;;;40.49;20.63;101858.94;5016103;28;20057;-66
2022/05/14 11:43:42;;;;;;;15.45;3.20;;;;;;;40.51;21.35;101862.28;5033156;28;20037;-66
2022/05/14 11:46:20;;;;;;;9.48;2.00;;;;;;;40.65;20.52;101858.38;5033156;28;20413;-67
2022/05/14 11:48:48;;;;;;;5.20;2.00;;;;;;;40.79;20.81;101852.00;5032994;28;20379;-65
2022/05/14 11:51:32;;;;;;;5.95;2.10;;;;;;;40.85;20.10;101851.59;5015713;28;20049;-66